Terminal Aerodrome Forecast
Issued by NWS

Home | Current Version | Previous Version | Text Only | Print | Product List | Glossary On
Versions: 1 2 3 4 5 6 7 8 9 10 11 12 13 14
000
FTUS46 KMTR 012300
TAFOAK
TAF
KOAK 012339Z 0200/0306 30011KT P6SM SKC
     FM020600 30005KT P6SM SKC
     FM021200 31005KT P6SM BKN015
     FM021700 25005KT P6SM FEW020
     FM022100 29013KT P6SM SKC=

USA.gov is the U.S. government's official web portal to all federal, state and local government web resources and services.